CheckWX is a tool to help pilots better visualize weather data.  It is not intended as a substitute for an official pre-flight weather briefing.

17:58:24 UTC

CYKJ TAF
Key Lake Airport
Key Lake, Saskatchewan, Canada
TAF AMD CYKJ 171630Z 1716/1724 02005KT P6SM FEW030 BKN060 TEMPO 1716/1719 5SM -SN IC BKN030 OVC060 FM171900 02005KT P6SM SCT020 SCT100 TEMPO 1719/1724 BKN020 RMK FCST BASED ON AUTO OBS. NXT FCST BY 171900Z

Feb-17@
16:00 UTC

Feb-17 @ 16:00 UTC

Feb-17@
19:00 UTC

Feb-17 @ 19:00 UTC

TAF AMD CYKJ 171630Z 1716/1724 02005KT P6SM FEW030 BKN060
Wind
  • 020° at 5 KTS
Visibility
Greater than 6 SM
Cloud Levels
  • Few at 3,000' AGL
  • Broken at 6,000' AGL

Feb-17@
16:00 UTC

Feb-17 @ 16:00 UTC

Feb-17@
19:00 UTC

Feb-17 @ 19:00 UTC

TEMPO 1716/1719 5SM -SN IC BKN030 OVC060

Temporary

TemporaryChanges expected for less than half the time period

Visibility
5 SM
Conditions
Light Snow, Ice crystals
Cloud Levels
  • Broken at 3,000' AGL
  • Overcast at 6,000' AGL

Feb-17@
19:00 UTC

Feb-17 @ 19:00 UTC

Feb-18@
00:00 UTC

Feb-18 @ 00:00 UTC

FM171900 02005KT P6SM SCT020 SCT100

From

FromStandard forecast or significant change

Wind
  • 020° at 5 KTS
Visibility
Greater than 6 SM
Cloud Levels
  • Scattered at 2,000' AGL
  • Scattered at 10,000' AGL

Feb-17@
19:00 UTC

Feb-17 @ 19:00 UTC

Feb-18@
00:00 UTC

Feb-18 @ 00:00 UTC

TEMPO 1719/1724 BKN020 RMK FCST BASED ON AUTO OBS. NXT FCST BY 171900Z

Temporary

TemporaryChanges expected for less than half the time period

Cloud Levels
  • Broken at 2,000' AGL